sensor_id;sensor_type;location;lat;lon;timestamp;temperature;humidity
24730;DHT22;12832;52.392;13.066;2023-07-08T00:00:40;27.90;37.40
24730;DHT22;12832;52.392;13.066;2023-07-08T00:03:06;27.90;37.40
24730;DHT22;12832;52.392;13.066;2023-07-08T00:05:33;27.90;37.40
24730;DHT22;12832;52.392;13.066;2023-07-08T00:07:59;27.90;37.40
24730;DHT22;12832;52.392;13.066;2023-07-08T00:10:26;27.90;37.50
24730;DHT22;12832;52.392;13.066;2023-07-08T00:12:55;27.90;37.50
24730;DHT22;12832;52.392;13.066;2023-07-08T00:15:24;27.90;37.50
24730;DHT22;12832;52.392;13.066;2023-07-08T00:17:51;27.90;37.50
24730;DHT22;12832;52.392;13.066;2023-07-08T00:20:22;27.90;37.50
24730;DHT22;12832;52.392;13.066;2023-07-08T00:22:49;27.90;37.50
24730;DHT22;12832;52.392;13.066;2023-07-08T00:25:18;27.90;37.50
24730;DHT22;12832;52.392;13.066;2023-07-08T00:27:48;27.90;37.40
24730;DHT22;12832;52.392;13.066;2023-07-08T00:30:19;27.90;37.50
24730;DHT22;12832;52.392;13.066;2023-07-08T00:32:46;27.90;37.50
24730;DHT22;12832;52.392;13.066;2023-07-08T00:35:12;27.90;37.50
24730;DHT22;12832;52.392;13.066;2023-07-08T00:37:38;27.90;37.50
24730;DHT22;12832;52.392;13.066;2023-07-08T00:40:25;27.90;37.50
24730;DHT22;12832;52.392;13.066;2023-07-08T00:42:51;27.90;37.50
24730;DHT22;12832;52.392;13.066;2023-07-08T00:45:37;27.90;37.50
24730;DHT22;12832;52.392;13.066;2023-07-08T00:48:30;27.90;37.50
24730;DHT22;12832;52.392;13.066;2023-07-08T00:50:59;27.90;37.50
24730;DHT22;12832;52.392;13.066;2023-07-08T00:53:29;27.90;37.50
24730;DHT22;12832;52.392;13.066;2023-07-08T00:56:02;27.90;37.50
24730;DHT22;12832;52.392;13.066;2023-07-08T00:58:34;27.90;37.50
24730;DHT22;12832;52.392;13.066;2023-07-08T01:01:03;27.90;37.50
24730;DHT22;12832;52.392;13.066;2023-07-08T01:03:31;27.90;37.50
24730;DHT22;12832;52.392;13.066;2023-07-08T01:05:59;27.90;37.50
24730;DHT22;12832;52.392;13.066;2023-07-08T01:08:28;27.90;37.50
24730;DHT22;12832;52.392;13.066;2023-07-08T01:11:00;27.90;37.50
24730;DHT22;12832;52.392;13.066;2023-07-08T01:13:32;27.90;37.50
24730;DHT22;12832;52.392;13.066;2023-07-08T01:16:00;27.80;37.50
24730;DHT22;12832;52.392;13.066;2023-07-08T01:18:26;27.90;37.50
24730;DHT22;12832;52.392;13.066;2023-07-08T01:20:53;28.00;37.60
24730;DHT22;12832;52.392;13.066;2023-07-08T01:23:22;27.90;37.60
24730;DHT22;12832;52.392;13.066;2023-07-08T01:25:48;27.90;37.50
24730;DHT22;12832;52.392;13.066;2023-07-08T01:28:15;27.90;37.50
24730;DHT22;12832;52.392;13.066;2023-07-08T01:30:42;27.90;37.60
24730;DHT22;12832;52.392;13.066;2023-07-08T01:33:17;28.00;37.60
24730;DHT22;12832;52.392;13.066;2023-07-08T01:35:46;27.90;37.50
24730;DHT22;12832;52.392;13.066;2023-07-08T01:38:15;27.90;37.50
24730;DHT22;12832;52.392;13.066;2023-07-08T01:40:49;27.90;37.50
24730;DHT22;12832;52.392;13.066;2023-07-08T01:43:16;27.90;37.50
24730;DHT22;12832;52.392;13.066;2023-07-08T01:45:42;27.90;37.50
24730;DHT22;12832;52.392;13.066;2023-07-08T01:48:19;28.00;37.60
24730;DHT22;12832;52.392;13.066;2023-07-08T01:50:54;27.90;37.60
24730;DHT22;12832;52.392;13.066;2023-07-08T01:53:37;27.90;37.60
24730;DHT22;12832;52.392;13.066;2023-07-08T01:56:04;27.90;37.60
24730;DHT22;12832;52.392;13.066;2023-07-08T01:58:31;28.00;37.60
24730;DHT22;12832;52.392;13.066;2023-07-08T02:00:57;28.00;37.60
24730;DHT22;12832;52.392;13.066;2023-07-08T02:03:25;28.00;37.60
24730;DHT22;12832;52.392;13.066;2023-07-08T02:05:52;27.90;37.60
24730;DHT22;12832;52.392;13.066;2023-07-08T02:08:18;27.90;37.70
24730;DHT22;12832;52.392;13.066;2023-07-08T02:10:50;27.90;37.90
24730;DHT22;12832;52.392;13.066;2023-07-08T02:13:17;27.90;38.00
24730;DHT22;12832;52.392;13.066;2023-07-08T02:15:44;27.90;38.00
24730;DHT22;12832;52.392;13.066;2023-07-08T02:18:10;27.90;38.00
24730;DHT22;12832;52.392;13.066;2023-07-08T02:20:36;27.90;38.00
24730;DHT22;12832;52.392;13.066;2023-07-08T02:23:02;27.80;38.00
24730;DHT22;12832;52.392;13.066;2023-07-08T02:25:29;27.80;38.00
24730;DHT22;12832;52.392;13.066;2023-07-08T02:27:56;27.90;38.10
24730;DHT22;12832;52.392;13.066;2023-07-08T02:30:24;27.90;38.10
24730;DHT22;12832;52.392;13.066;2023-07-08T02:32:50;27.90;38.10
24730;DHT22;12832;52.392;13.066;2023-07-08T02:35:27;27.90;38.10
24730;DHT22;12832;52.392;13.066;2023-07-08T02:37:55;27.90;38.10
24730;DHT22;12832;52.392;13.066;2023-07-08T02:40:22;27.90;38.10
24730;DHT22;12832;52.392;13.066;2023-07-08T02:42:49;27.80;38.10
24730;DHT22;12832;52.392;13.066;2023-07-08T02:45:16;27.80;38.10
24730;DHT22;12832;52.392;13.066;2023-07-08T02:47:43;27.90;38.10
24730;DHT22;12832;52.392;13.066;2023-07-08T02:50:10;27.80;38.10
24730;DHT22;12832;52.392;13.066;2023-07-08T02:52:37;27.80;38.10
24730;DHT22;12832;52.392;13.066;2023-07-08T02:55:04;27.80;38.10
24730;DHT22;12832;52.392;13.066;2023-07-08T02:57:30;27.80;38.10
24730;DHT22;12832;52.392;13.066;2023-07-08T02:59:56;27.80;38.10
24730;DHT22;12832;52.392;13.066;2023-07-08T03:02:22;27.80;38.10
24730;DHT22;12832;52.392;13.066;2023-07-08T03:04:49;27.80;38.10
24730;DHT22;12832;52.392;13.066;2023-07-08T03:07:16;27.80;38.10
24730;DHT22;12832;52.392;13.066;2023-07-08T03:09:43;27.80;38.10
24730;DHT22;12832;52.392;13.066;2023-07-08T03:12:11;27.80;38.10
24730;DHT22;12832;52.392;13.066;2023-07-08T03:14:37;27.80;38.20
24730;DHT22;12832;52.392;13.066;2023-07-08T03:17:04;27.80;38.20
24730;DHT22;12832;52.392;13.066;2023-07-08T03:19:31;27.80;38.20
24730;DHT22;12832;52.392;13.066;2023-07-08T03:21:58;27.80;38.20
24730;DHT22;12832;52.392;13.066;2023-07-08T03:24:25;27.80;38.20
24730;DHT22;12832;52.392;13.066;2023-07-08T03:26:51;27.70;38.20
24730;DHT22;12832;52.392;13.066;2023-07-08T03:29:20;27.70;38.10
24730;DHT22;12832;52.392;13.066;2023-07-08T03:31:47;27.70;38.10
24730;DHT22;12832;52.392;13.066;2023-07-08T03:34:15;27.70;38.10
24730;DHT22;12832;52.392;13.066;2023-07-08T03:36:49;27.70;38.10
24730;DHT22;12832;52.392;13.066;2023-07-08T03:39:22;27.80;38.20
24730;DHT22;12832;52.392;13.066;2023-07-08T03:41:50;27.70;38.20
24730;DHT22;12832;52.392;13.066;2023-07-08T03:44:16;27.70;38.20
24730;DHT22;12832;52.392;13.066;2023-07-08T03:46:47;27.70;38.20
24730;DHT22;12832;52.392;13.066;2023-07-08T03:49:16;27.70;38.20
24730;DHT22;12832;52.392;13.066;2023-07-08T03:51:48;27.70;38.20
24730;DHT22;12832;52.392;13.066;2023-07-08T03:54:15;27.70;38.30
24730;DHT22;12832;52.392;13.066;2023-07-08T03:56:41;27.70;38.20
24730;DHT22;12832;52.392;13.066;2023-07-08T03:59:08;27.70;38.20
24730;DHT22;12832;52.392;13.066;2023-07-08T04:01:35;27.70;38.30
24730;DHT22;12832;52.392;13.066;2023-07-08T04:04:01;27.60;38.20
24730;DHT22;12832;52.392;13.066;2023-07-08T04:06:27;27.70;38.30
24730;DHT22;12832;52.392;13.066;2023-07-08T04:08:57;27.60;38.30
24730;DHT22;12832;52.392;13.066;2023-07-08T04:11:24;27.70;38.30
24730;DHT22;12832;52.392;13.066;2023-07-08T04:13:50;27.70;38.30
24730;DHT22;12832;52.392;13.066;2023-07-08T04:16:29;27.60;38.30
24730;DHT22;12832;52.392;13.066;2023-07-08T04:18:57;27.60;38.30
24730;DHT22;12832;52.392;13.066;2023-07-08T04:21:24;27.70;38.40
24730;DHT22;12832;52.392;13.066;2023-07-08T04:23:54;27.70;38.30
24730;DHT22;12832;52.392;13.066;2023-07-08T04:26:20;27.70;38.30
24730;DHT22;12832;52.392;13.066;2023-07-08T04:28:46;27.70;38.40
24730;DHT22;12832;52.392;13.066;2023-07-08T04:31:13;27.60;38.40
24730;DHT22;12832;52.392;13.066;2023-07-08T04:33:39;27.60;38.40
24730;DHT22;12832;52.392;13.066;2023-07-08T04:36:11;27.70;38.40
24730;DHT22;12832;52.392;13.066;2023-07-08T04:38:38;27.60;38.40
24730;DHT22;12832;52.392;13.066;2023-07-08T04:41:04;27.60;38.30
24730;DHT22;12832;52.392;13.066;2023-07-08T04:43:31;27.70;38.40
24730;DHT22;12832;52.392;13.066;2023-07-08T04:45:57;27.60;38.40
24730;DHT22;12832;52.392;13.066;2023-07-08T04:48:24;27.60;38.40
24730;DHT22;12832;52.392;13.066;2023-07-08T04:50:51;27.60;38.40
24730;DHT22;12832;52.392;13.066;2023-07-08T04:53:18;27.60;38.40
24730;DHT22;12832;52.392;13.066;2023-07-08T04:55:49;27.60;38.40
24730;DHT22;12832;52.392;13.066;2023-07-08T04:58:16;27.60;39.30
24730;DHT22;12832;52.392;13.066;2023-07-08T05:00:43;27.60;38.40
24730;DHT22;12832;52.392;13.066;2023-07-08T05:03:09;27.60;38.40
24730;DHT22;12832;52.392;13.066;2023-07-08T05:05:35;27.60;38.40
24730;DHT22;12832;52.392;13.066;2023-07-08T05:08:01;27.60;38.40
24730;DHT22;12832;52.392;13.066;2023-07-08T05:10:28;27.70;38.50
24730;DHT22;12832;52.392;13.066;2023-07-08T05:12:54;27.70;38.50
24730;DHT22;12832;52.392;13.066;2023-07-08T05:15:20;27.70;38.40
24730;DHT22;12832;52.392;13.066;2023-07-08T05:17:46;27.70;38.40
24730;DHT22;12832;52.392;13.066;2023-07-08T05:20:14;27.60;38.40
24730;DHT22;12832;52.392;13.066;2023-07-08T05:22:41;27.70;38.40
24730;DHT22;12832;52.392;13.066;2023-07-08T05:25:09;27.70;38.40
24730;DHT22;12832;52.392;13.066;2023-07-08T05:27:35;27.70;38.40
24730;DHT22;12832;52.392;13.066;2023-07-08T05:30:03;27.70;38.30
24730;DHT22;12832;52.392;13.066;2023-07-08T05:32:29;27.70;38.30
24730;DHT22;12832;52.392;13.066;2023-07-08T05:34:56;27.70;38.30
24730;DHT22;12832;52.392;13.066;2023-07-08T05:37:22;27.70;38.30
24730;DHT22;12832;52.392;13.066;2023-07-08T05:39:55;27.70;38.30
24730;DHT22;12832;52.392;13.066;2023-07-08T05:42:22;27.70;38.30
24730;DHT22;12832;52.392;13.066;2023-07-08T05:44:48;27.70;38.30
24730;DHT22;12832;52.392;13.066;2023-07-08T05:47:17;27.70;38.30
24730;DHT22;12832;52.392;13.066;2023-07-08T05:49:43;27.70;38.30
24730;DHT22;12832;52.392;13.066;2023-07-08T05:52:10;27.80;38.30
24730;DHT22;12832;52.392;13.066;2023-07-08T05:54:40;27.70;38.30
24730;DHT22;12832;52.392;13.066;2023-07-08T05:57:09;27.70;38.20
24730;DHT22;12832;52.392;13.066;2023-07-08T05:59:36;27.70;38.20
24730;DHT22;12832;52.392;13.066;2023-07-08T06:02:05;27.70;38.30
24730;DHT22;12832;52.392;13.066;2023-07-08T06:04:32;27.70;38.20
24730;DHT22;12832;52.392;13.066;2023-07-08T06:06:59;27.70;38.20
24730;DHT22;12832;52.392;13.066;2023-07-08T06:09:25;27.80;39.00
24730;DHT22;12832;52.392;13.066;2023-07-08T06:11:51;27.70;38.20
24730;DHT22;12832;52.392;13.066;2023-07-08T06:14:17;27.70;38.20
24730;DHT22;12832;52.392;13.066;2023-07-08T06:16:43;27.70;38.20
24730;DHT22;12832;52.392;13.066;2023-07-08T06:19:12;27.70;38.20
24730;DHT22;12832;52.392;13.066;2023-07-08T06:21:40;27.80;38.30
24730;DHT22;12832;52.392;13.066;2023-07-08T06:24:07;27.80;38.30
24730;DHT22;12832;52.392;13.066;2023-07-08T06:26:34;27.80;38.30
24730;DHT22;12832;52.392;13.066;2023-07-08T06:29:00;27.80;38.20
24730;DHT22;12832;52.392;13.066;2023-07-08T06:31:26;27.80;38.20
24730;DHT22;12832;52.392;13.066;2023-07-08T06:33:53;27.80;38.30
24730;DHT22;12832;52.392;13.066;2023-07-08T06:36:19;27.80;38.30
24730;DHT22;12832;52.392;13.066;2023-07-08T06:38:45;27.80;38.20
24730;DHT22;12832;52.392;13.066;2023-07-08T06:41:11;27.80;38.20
24730;DHT22;12832;52.392;13.066;2023-07-08T06:43:37;27.80;38.30
24730;DHT22;12832;52.392;13.066;2023-07-08T06:46:04;27.80;38.20
24730;DHT22;12832;52.392;13.066;2023-07-08T06:48:32;27.80;38.20
24730;DHT22;12832;52.392;13.066;2023-07-08T06:50:59;27.80;38.30
24730;DHT22;12832;52.392;13.066;2023-07-08T06:53:25;27.80;38.20
24730;DHT22;12832;52.392;13.066;2023-07-08T06:55:51;27.80;38.20
24730;DHT22;12832;52.392;13.066;2023-07-08T06:58:17;27.80;38.30
24730;DHT22;12832;52.392;13.066;2023-07-08T07:00:44;27.80;38.20
24730;DHT22;12832;52.392;13.066;2023-07-08T07:03:12;27.80;38.20
24730;DHT22;12832;52.392;13.066;2023-07-08T07:05:39;27.80;38.20
24730;DHT22;12832;52.392;13.066;2023-07-08T07:08:05;27.80;38.80
24730;DHT22;12832;52.392;13.066;2023-07-08T07:10:34;27.80;38.20
24730;DHT22;12832;52.392;13.066;2023-07-08T07:13:03;27.90;38.20
24730;DHT22;12832;52.392;13.066;2023-07-08T07:15:29;27.80;38.20
24730;DHT22;12832;52.392;13.066;2023-07-08T07:17:57;27.80;38.20
24730;DHT22;12832;52.392;13.066;2023-07-08T07:20:26;27.80;38.20
24730;DHT22;12832;52.392;13.066;2023-07-08T07:22:53;27.80;38.20
24730;DHT22;12832;52.392;13.066;2023-07-08T07:25:20;27.80;38.20
24730;DHT22;12832;52.392;13.066;2023-07-08T07:27:46;27.80;38.20
24730;DHT22;12832;52.392;13.066;2023-07-08T07:30:13;27.80;38.20
24730;DHT22;12832;52.392;13.066;2023-07-08T07:32:44;27.90;38.20
24730;DHT22;12832;52.392;13.066;2023-07-08T07:35:11;27.80;38.20
24730;DHT22;12832;52.392;13.066;2023-07-08T07:37:39;27.90;38.20
24730;DHT22;12832;52.392;13.066;2023-07-08T07:40:13;27.80;38.20
24730;DHT22;12832;52.392;13.066;2023-07-08T07:42:42;27.80;38.20
24730;DHT22;12832;52.392;13.066;2023-07-08T07:45:09;27.80;38.20
24730;DHT22;12832;52.392;13.066;2023-07-08T07:47:36;27.90;38.20
24730;DHT22;12832;52.392;13.066;2023-07-08T07:50:07;27.80;38.20
24730;DHT22;12832;52.392;13.066;2023-07-08T07:52:34;27.90;38.20
24730;DHT22;12832;52.392;13.066;2023-07-08T07:55:01;27.80;38.20
24730;DHT22;12832;52.392;13.066;2023-07-08T07:57:28;27.90;38.20
24730;DHT22;12832;52.392;13.066;2023-07-08T07:59:54;27.90;38.20
24730;DHT22;12832;52.392;13.066;2023-07-08T08:02:20;27.80;38.20
24730;DHT22;12832;52.392;13.066;2023-07-08T08:04:46;27.90;38.20
24730;DHT22;12832;52.392;13.066;2023-07-08T08:07:13;27.90;38.20
24730;DHT22;12832;52.392;13.066;2023-07-08T08:09:39;27.90;38.20
24730;DHT22;12832;52.392;13.066;2023-07-08T08:12:08;27.90;38.20
24730;DHT22;12832;52.392;13.066;2023-07-08T08:14:34;27.90;38.20
24730;DHT22;12832;52.392;13.066;2023-07-08T08:17:01;27.90;38.20
24730;DHT22;12832;52.392;13.066;2023-07-08T08:19:28;27.90;38.20
24730;DHT22;12832;52.392;13.066;2023-07-08T08:21:55;27.90;38.20
24730;DHT22;12832;52.392;13.066;2023-07-08T08:24:21;27.90;38.30
24730;DHT22;12832;52.392;13.066;2023-07-08T08:26:47;27.80;38.20
24730;DHT22;12832;52.392;13.066;2023-07-08T08:29:13;27.90;38.20
24730;DHT22;12832;52.392;13.066;2023-07-08T08:31:39;27.90;38.20
24730;DHT22;12832;52.392;13.066;2023-07-08T08:34:05;27.90;38.20
24730;DHT22;12832;52.392;13.066;2023-07-08T08:36:32;27.90;38.20
24730;DHT22;12832;52.392;13.066;2023-07-08T08:38:58;27.90;38.20
24730;DHT22;12832;52.392;13.066;2023-07-08T08:41:33;27.90;38.20
24730;DHT22;12832;52.392;13.066;2023-07-08T08:44:01;27.90;38.20
24730;DHT22;12832;52.392;13.066;2023-07-08T08:46:38;27.90;38.20
24730;DHT22;12832;52.392;13.066;2023-07-08T08:49:24;27.90;38.20
24730;DHT22;12832;52.392;13.066;2023-07-08T08:51:51;27.90;38.20
24730;DHT22;12832;52.392;13.066;2023-07-08T08:54:18;27.90;38.20
24730;DHT22;12832;52.392;13.066;2023-07-08T09:05:10;27.90;38.20
24730;DHT22;12832;52.392;13.066;2023-07-08T09:11:01;27.90;38.90
24730;DHT22;12832;52.392;13.066;2023-07-08T09:13:35;27.90;38.20
24730;DHT22;12832;52.392;13.066;2023-07-08T09:18:51;27.90;38.20
24730;DHT22;12832;52.392;13.066;2023-07-08T09:21:24;27.90;38.20
24730;DHT22;12832;52.392;13.066;2023-07-08T09:23:56;27.90;38.20
24730;DHT22;12832;52.392;13.066;2023-07-08T09:26:27;27.90;38.20
24730;DHT22;12832;52.392;13.066;2023-07-08T09:28:56;27.90;38.20
24730;DHT22;12832;52.392;13.066;2023-07-08T09:31:30;27.90;38.20
24730;DHT22;12832;52.392;13.066;2023-07-08T09:34:08;27.90;38.20
24730;DHT22;12832;52.392;13.066;2023-07-08T09:36:40;27.90;38.20
24730;DHT22;12832;52.392;13.066;2023-07-08T09:39:15;27.90;38.20
24730;DHT22;12832;52.392;13.066;2023-07-08T09:41:44;27.90;38.20
24730;DHT22;12832;52.392;13.066;2023-07-08T09:46:40;27.90;38.20
24730;DHT22;12832;52.392;13.066;2023-07-08T09:49:28;27.90;38.20
24730;DHT22;12832;52.392;13.066;2023-07-08T09:51:57;27.90;38.20
24730;DHT22;12832;52.392;13.066;2023-07-08T09:54:25;27.90;38.20
24730;DHT22;12832;52.392;13.066;2023-07-08T09:56:59;27.90;38.20
24730;DHT22;12832;52.392;13.066;2023-07-08T09:59:31;27.90;38.20
24730;DHT22;12832;52.392;13.066;2023-07-08T10:02:02;27.90;38.20
24730;DHT22;12832;52.392;13.066;2023-07-08T10:04:30;27.90;38.20
24730;DHT22;12832;52.392;13.066;2023-07-08T10:06:56;27.90;38.30
24730;DHT22;12832;52.392;13.066;2023-07-08T10:09:24;27.90;38.20
24730;DHT22;12832;52.392;13.066;2023-07-08T10:11:56;27.90;38.20
24730;DHT22;12832;52.392;13.066;2023-07-08T10:14:40;27.90;38.20
24730;DHT22;12832;52.392;13.066;2023-07-08T10:17:14;28.00;38.20
24730;DHT22;12832;52.392;13.066;2023-07-08T10:19:41;28.00;38.30
24730;DHT22;12832;52.392;13.066;2023-07-08T10:24:55;28.00;38.20
24730;DHT22;12832;52.392;13.066;2023-07-08T10:30:58;28.00;38.20
24730;DHT22;12832;52.392;13.066;2023-07-08T10:33:48;28.00;38.30
24730;DHT22;12832;52.392;13.066;2023-07-08T10:36:27;28.00;38.20
24730;DHT22;12832;52.392;13.066;2023-07-08T10:39:33;28.00;38.30
24730;DHT22;12832;52.392;13.066;2023-07-08T10:45:31;27.90;38.20
24730;DHT22;12832;52.392;13.066;2023-07-08T10:54:05;28.00;38.30
24730;DHT22;12832;52.392;13.066;2023-07-08T10:56:46;27.90;38.20
24730;DHT22;12832;52.392;13.066;2023-07-08T11:02:26;28.00;38.30
24730;DHT22;12832;52.392;13.066;2023-07-08T11:08:01;28.00;38.30
24730;DHT22;12832;52.392;13.066;2023-07-08T11:10:34;28.00;38.30
24730;DHT22;12832;52.392;13.066;2023-07-08T11:13:06;28.00;38.30
24730;DHT22;12832;52.392;13.066;2023-07-08T11:15:56;28.00;38.30
24730;DHT22;12832;52.392;13.066;2023-07-08T11:18:39;28.00;38.30
24730;DHT22;12832;52.392;13.066;2023-07-08T11:21:14;28.00;38.30
24730;DHT22;12832;52.392;13.066;2023-07-08T11:28:53;28.00;38.30
24730;DHT22;12832;52.392;13.066;2023-07-08T11:31:20;28.00;38.30
24730;DHT22;12832;52.392;13.066;2023-07-08T11:33:48;28.00;38.30
24730;DHT22;12832;52.392;13.066;2023-07-08T11:36:15;28.00;38.30
24730;DHT22;12832;52.392;13.066;2023-07-08T11:38:50;28.00;38.30
24730;DHT22;12832;52.392;13.066;2023-07-08T11:41:22;28.00;38.30
24730;DHT22;12832;52.392;13.066;2023-07-08T11:43:59;28.00;38.30
24730;DHT22;12832;52.392;13.066;2023-07-08T11:46:31;28.00;38.30
24730;DHT22;12832;52.392;13.066;2023-07-08T11:49:04;28.00;38.30
24730;DHT22;12832;52.392;13.066;2023-07-08T11:51:35;28.00;38.30
24730;DHT22;12832;52.392;13.066;2023-07-08T11:59:26;28.00;38.30
24730;DHT22;12832;52.392;13.066;2023-07-08T12:02:02;28.00;38.30
24730;DHT22;12832;52.392;13.066;2023-07-08T12:04:34;28.00;38.30
24730;DHT22;12832;52.392;13.066;2023-07-08T12:09:44;28.00;38.30
24730;DHT22;12832;52.392;13.066;2023-07-08T12:12:22;28.00;38.30
24730;DHT22;12832;52.392;13.066;2023-07-08T12:14:52;28.00;38.30
24730;DHT22;12832;52.392;13.066;2023-07-08T12:17:20;28.00;38.30
24730;DHT22;12832;52.392;13.066;2023-07-08T12:19:47;28.00;38.40
24730;DHT22;12832;52.392;13.066;2023-07-08T12:22:15;28.00;38.30
24730;DHT22;12832;52.392;13.066;2023-07-08T12:24:41;28.00;38.40
24730;DHT22;12832;52.392;13.066;2023-07-08T12:27:09;28.00;38.40
24730;DHT22;12832;52.392;13.066;2023-07-08T12:29:36;28.00;38.40
24730;DHT22;12832;52.392;13.066;2023-07-08T12:32:03;28.00;38.30
24730;DHT22;12832;52.392;13.066;2023-07-08T12:34:29;28.00;38.40
24730;DHT22;12832;52.392;13.066;2023-07-08T12:36:55;28.00;38.30
24730;DHT22;12832;52.392;13.066;2023-07-08T12:39:23;28.00;38.30
24730;DHT22;12832;52.392;13.066;2023-07-08T12:41:49;28.00;38.30
24730;DHT22;12832;52.392;13.066;2023-07-08T12:44:23;28.00;38.40
24730;DHT22;12832;52.392;13.066;2023-07-08T12:46:52;28.00;38.30
24730;DHT22;12832;52.392;13.066;2023-07-08T12:49:20;28.00;38.30
24730;DHT22;12832;52.392;13.066;2023-07-08T12:51:47;28.00;38.40
24730;DHT22;12832;52.392;13.066;2023-07-08T12:54:13;28.00;38.40
24730;DHT22;12832;52.392;13.066;2023-07-08T12:56:43;28.00;38.30
24730;DHT22;12832;52.392;13.066;2023-07-08T12:59:17;28.00;38.40
24730;DHT22;12832;52.392;13.066;2023-07-08T13:01:46;28.00;38.40
24730;DHT22;12832;52.392;13.066;2023-07-08T13:04:13;28.00;38.40
24730;DHT22;12832;52.392;13.066;2023-07-08T13:06:40;28.00;38.40
24730;DHT22;12832;52.392;13.066;2023-07-08T13:11:55;28.00;38.40
24730;DHT22;12832;52.392;13.066;2023-07-08T13:14:22;28.00;38.40
24730;DHT22;12832;52.392;13.066;2023-07-08T13:16:50;28.00;38.40
24730;DHT22;12832;52.392;13.066;2023-07-08T13:19:16;28.00;38.40
24730;DHT22;12832;52.392;13.066;2023-07-08T13:21:47;28.00;38.40
24730;DHT22;12832;52.392;13.066;2023-07-08T13:24:14;28.00;38.40
24730;DHT22;12832;52.392;13.066;2023-07-08T13:26:41;28.00;38.30
24730;DHT22;12832;52.392;13.066;2023-07-08T13:29:14;28.00;38.40
24730;DHT22;12832;52.392;13.066;2023-07-08T13:31:55;28.00;38.40
24730;DHT22;12832;52.392;13.066;2023-07-08T13:34:24;28.00;38.40
24730;DHT22;12832;52.392;13.066;2023-07-08T13:36:51;28.00;38.40
24730;DHT22;12832;52.392;13.066;2023-07-08T13:39:31;28.00;38.40
24730;DHT22;12832;52.392;13.066;2023-07-08T13:41:59;28.00;38.40
24730;DHT22;12832;52.392;13.066;2023-07-08T13:44:26;28.00;38.40
24730;DHT22;12832;52.392;13.066;2023-07-08T13:46:55;28.00;38.40
24730;DHT22;12832;52.392;13.066;2023-07-08T13:51:51;28.00;38.40
24730;DHT22;12832;52.392;13.066;2023-07-08T13:54:34;28.00;38.40
24730;DHT22;12832;52.392;13.066;2023-07-08T13:57:01;28.00;38.40
24730;DHT22;12832;52.392;13.066;2023-07-08T13:59:28;28.00;38.40
24730;DHT22;12832;52.392;13.066;2023-07-08T14:01:57;28.00;38.40
24730;DHT22;12832;52.392;13.066;2023-07-08T14:04:33;28.00;38.40
24730;DHT22;12832;52.392;13.066;2023-07-08T14:07:00;28.00;38.40
24730;DHT22;12832;52.392;13.066;2023-07-08T14:09:26;28.00;38.40
24730;DHT22;12832;52.392;13.066;2023-07-08T14:11:53;28.00;38.40
24730;DHT22;12832;52.392;13.066;2023-07-08T14:14:19;28.00;38.40
24730;DHT22;12832;52.392;13.066;2023-07-08T14:16:48;28.00;38.40
24730;DHT22;12832;52.392;13.066;2023-07-08T14:19:24;28.00;38.40
24730;DHT22;12832;52.392;13.066;2023-07-08T14:21:54;28.00;38.40
24730;DHT22;12832;52.392;13.066;2023-07-08T14:24:21;28.00;38.40
24730;DHT22;12832;52.392;13.066;2023-07-08T14:26:47;28.00;38.40
24730;DHT22;12832;52.392;13.066;2023-07-08T14:29:14;28.00;38.40
24730;DHT22;12832;52.392;13.066;2023-07-08T14:31:40;28.00;38.40
24730;DHT22;12832;52.392;13.066;2023-07-08T14:34:23;28.00;38.40
24730;DHT22;12832;52.392;13.066;2023-07-08T14:36:50;28.00;38.40
24730;DHT22;12832;52.392;13.066;2023-07-08T14:39:18;28.00;38.40
24730;DHT22;12832;52.392;13.066;2023-07-08T14:41:46;28.00;38.40
24730;DHT22;12832;52.392;13.066;2023-07-08T14:46:45;28.10;38.40
24730;DHT22;12832;52.392;13.066;2023-07-08T14:49:16;28.10;38.50
24730;DHT22;12832;52.392;13.066;2023-07-08T14:51:42;28.10;38.40
24730;DHT22;12832;52.392;13.066;2023-07-08T14:54:09;28.00;38.40
24730;DHT22;12832;52.392;13.066;2023-07-08T14:56:35;28.00;38.40
24730;DHT22;12832;52.392;13.066;2023-07-08T14:59:01;28.10;38.40
24730;DHT22;12832;52.392;13.066;2023-07-08T15:01:30;28.10;38.50
24730;DHT22;12832;52.392;13.066;2023-07-08T15:03:57;28.00;38.40
24730;DHT22;12832;52.392;13.066;2023-07-08T15:06:24;28.10;38.50
24730;DHT22;12832;52.392;13.066;2023-07-08T15:08:51;28.00;38.40
24730;DHT22;12832;52.392;13.066;2023-07-08T15:11:18;28.00;39.30
24730;DHT22;12832;52.392;13.066;2023-07-08T15:13:45;28.00;38.60
24730;DHT22;12832;52.392;13.066;2023-07-08T15:16:13;28.00;38.70
24730;DHT22;12832;52.392;13.066;2023-07-08T15:18:40;28.00;38.70
24730;DHT22;12832;52.392;13.066;2023-07-08T15:21:16;28.00;38.60
24730;DHT22;12832;52.392;13.066;2023-07-08T15:23:42;28.00;38.60
24730;DHT22;12832;52.392;13.066;2023-07-08T15:26:12;28.00;38.60
24730;DHT22;12832;52.392;13.066;2023-07-08T15:28:48;28.00;39.30
24730;DHT22;12832;52.392;13.066;2023-07-08T15:31:21;28.00;38.60
24730;DHT22;12832;52.392;13.066;2023-07-08T15:33:52;28.00;38.60
24730;DHT22;12832;52.392;13.066;2023-07-08T15:36:18;28.00;38.60
24730;DHT22;12832;52.392;13.066;2023-07-08T15:38:44;28.00;38.60
24730;DHT22;12832;52.392;13.066;2023-07-08T15:41:20;28.00;38.50
24730;DHT22;12832;52.392;13.066;2023-07-08T15:43:48;28.10;38.60
24730;DHT22;12832;52.392;13.066;2023-07-08T15:46:15;28.10;38.60
24730;DHT22;12832;52.392;13.066;2023-07-08T15:48:42;28.00;38.40
24730;DHT22;12832;52.392;13.066;2023-07-08T15:51:13;28.00;38.50
24730;DHT22;12832;52.392;13.066;2023-07-08T15:53:39;28.10;38.50
24730;DHT22;12832;52.392;13.066;2023-07-08T15:56:12;28.10;38.40
24730;DHT22;12832;52.392;13.066;2023-07-08T15:58:41;28.10;38.40
24730;DHT22;12832;52.392;13.066;2023-07-08T16:01:16;28.10;38.40
24730;DHT22;12832;52.392;13.066;2023-07-08T16:03:43;28.10;38.40
24730;DHT22;12832;52.392;13.066;2023-07-08T16:06:10;28.10;38.30
24730;DHT22;12832;52.392;13.066;2023-07-08T16:08:36;28.10;38.30
24730;DHT22;12832;52.392;13.066;2023-07-08T16:11:05;28.10;38.30
24730;DHT22;12832;52.392;13.066;2023-07-08T16:13:37;28.10;38.30
24730;DHT22;12832;52.392;13.066;2023-07-08T16:16:04;28.10;38.20
24730;DHT22;12832;52.392;13.066;2023-07-08T16:18:30;28.10;38.20
24730;DHT22;12832;52.392;13.066;2023-07-08T16:20:56;28.10;38.10
24730;DHT22;12832;52.392;13.066;2023-07-08T16:23:22;28.20;38.20
24730;DHT22;12832;52.392;13.066;2023-07-08T16:25:51;28.10;38.10